AirNav   Pilot Hours Calculator
 
 904 users online  

61FL Tampa General Hospital Heliport
Tampa, Florida, USA

GOING TO TAMPA?


FAA INFORMATION EFFECTIVE 30 JANUARY 2020

Location

FAA Identifier: 61FL
Lat/Long: 27-56-21.3600N 082-27-34.0800W
27-56.356000N 082-27.568000W
27.9392667,-82.4594667
(estimated)
Elevation: 7 ft. / 2 m (estimated)
Variation: 02W (1985)
Time zone: UTC -5 (UTC -4 during Daylight Saving Time)
Zip code: 33606

Heliport Operations

Heliport use: Private use, MEDICAL.
Activation date: 04/1982
Control tower: no
ARTCC: MIAMI CENTER
FSS: SAINT PETERSBURG FLIGHT SERVICE STATION
Attendance: UNATNDD
Wind indicator: lighted
Segmented circle: no
Lights: SS-SR

Heliport Communications

WX AWOS-3 at TPF (1.5 nm S): 118.925 (813-251-6824)
WX ASOS at TPA (4 nm NW): PHONE 813-873-7228
WX AWOS-3 at VDF (8 nm NE): 121.125 (813-630-0924)
WX ASOS at PIE (12 nm W): PHONE 727-531-3456
WX ASOS at SPG (14 nm SW): 118.875 (727-821-4334)
WX AWOS-3P at CLW (16 nm W): 119.225 (727-449-2184)
WX AWOS-3 at PCM (16 nm E): 120.025 (813-764-8259)
  • UNICOM 122.825.

Nearby radio navigation aids

VOR radial/distance  VOR name  Freq  Var
PIEr086/12.1ST PETERSBURG VORTAC116.4005W
LALr262/23.8LAKELAND VORTAC116.0001E
SRQr015/32.4SARASOTA VOR/DME117.0005W

 
NDB name  Hdg/Dist  Freq  Var  ID
COSME163/9.436805WTP - .--.
CAPOK110/13.436005WPI .--. ..

Heliport Services

Runway Information

Helipad H1

Dimensions: 110 x 90 ft. / 34 x 27 m
Surface: concrete, in fair condition
Runway edge lights: PERI
AND FLOOD LGTS.
Latitude: 27-56.356000N
Longitude: 082-27.568000W
Elevation: 7.0 ft.
Traffic pattern: leftleft
Markings: none, in fair condition

Heliport Ownership and Management from official FAA records

Ownership: Privately-owned
Owner: HILLSBOROUGH COUNTY HOSP AUTH
1 TAMPA GENERAL CIRCLE, TAMPA GEN HOSP / AEROMED
TAMPA, FL 33601
Phone (813) 844-7758
Manager: JOHN SCOTT
TAMPA GENERAL HOSPITAL, PO BOX 1289
TAMPA, FL 33601
Phone (813) 844-7758

Heliport Operational Statistics

Aircraft based on the field: 1
Helicopters: 1
    

Additional Remarks

A52-H1 BLDG EAST OF PAD.
RADIO 155.340 FOR PERMISSION TO LAND OR PHONE 1-800-727-1911 AND GIVE ETA IF ABOVE FREQ NOT CAPABLE ON HELICOPTER.
FOR CD CTC TAMPA APCH AT 813-878-2528

Instrument Procedures

There are no published instrument procedures at 61FL.

Some nearby airports with instrument procedures:

KTPF - Peter O Knight Airport (2 nm S)
KTPA - Tampa International Airport (4 nm NW)
KMCF - MacDill Air Force Base (6 nm SW)
KVDF - Tampa Executive Airport (8 nm NE)
KPIE - St Pete-Clearwater International Airport (12 nm W)
KSPG - Albert Whitted Airport (14 nm SW)
KCLW - Clearwater Air Park (16 nm W)
KPCM - Plant City Airport (16 nm E)
 
Loc | Ops | Rwys | IFR | FBO | Links
Com | Nav | Svcs | Stats | Notes


 
Area around 61FL (Tampa General Hospital Heliport)
 
Road maps at: MapQuest Bing Google
 
Aerial photo
WARNING: Photo may not be current or correct
Aerial photo of 61FL (Tampa General Hospital Heliport)
Photo taken 30-Jun-2007
approaching from the southwest.

Do you have a better or more recent aerial photo of Tampa General Hospital Heliport that you would like to share? If so, please send us your photo.

 
Sectional chart

 
Airport distance calculator
Flying to Tampa General Hospital Heliport? Find the distance to fly.

From to 61FL

Sunrise and sunset
Times for 16-Feb-2020
 Local
(UTC-5)
 Zulu
(UTC)
Morning civil twilight06:4411:44
Sunrise07:0812:08
Sunset18:2023:20
Evening civil twilight18:4423:44

Current date and time
Zulu (UTC)  17-Feb-2020 01:30:51
Local (UTC-5)  16-Feb-2020 20:30:51
 
METAR
KTPF 
2nm S 
170115Z AUTO 31003KT 10SM OVC110 22/22 A3008 RMK AO2
KTPA 
4nm NW 
170053Z 00000KT 10SM FEW130 BKN210 22/18 A3007 RMK AO2 SLP182 T02170183
KMCF 
6nm SW 
162156Z AUTO 22008KT 10SM FEW036 26/20 A3002 RMK AO2 SLP169 T02550198 FZRANO $
KVDF 
7nm NE 
170115Z AUTO 32004KT 10SM SCT015 SCT060 21/20 A3008 RMK AO2
KPIE 
12nm W 
170120Z 32005KT 10SM OVC009 22/19 A3008 RMK AO2 T02170194
KSPG 
14nm SW 
170109Z 31006KT 10SM SCT009 22/20 A3005 RMK AO2 T02170200
KCLW 
16nm W 
170115Z AUTO 31003KT 10SM CLR 20/18 A3008 RMK AO2
KPCM 
16nm E 
170115Z AUTO 29004KT 10SM SCT046 SCT050 23/21 A3009 RMK AO2
TAF
KTPA 
4nm NW 
162059Z 1621/1724 24011KT P6SM SCT035 BKN120 FM162300 29007KT P6SM FEW015 SCT025 BKN100 FM170200 VRB03KT P6SM SCT015 SCT025 BKN080 FM170800 00000KT 4SM BR SCT006 OVC015 TEMPO 1708/1712 2SM BR BKN006 FM171500 13005KT P6SM SCT015 BKN025 OVC050 FM171900 23006KT P6SM SCT035 BKN050
KMCF 
6nm SW 
162230Z 1622/1723 22009KT 9999 VCSH SCT030 SCT120 QNH3009INS BECMG 1622/1623 27009KT 9000 -SHRA SCT030 BKN080 QNH3004INS BECMG 1704/1705 02006KT 6000 BR BKN008 QNH3007INS BECMG 1712/1713 VRB06KT 9000 BR SCT012 BKN025 QNH3005INS BECMG 1715/1716 29009KT 9999 NSW SCT030 QNH3010INS TX28/1720Z TN19/1706Z LAST NO AMDS AFT 1622 NEXT 1801
KPIE 
12nm W 
161720Z 1618/1718 16009KT P6SM SCT030 SCT120 FM162000 24011KT P6SM SCT035 BKN120 FM162300 29007KT P6SM FEW015 SCT025 BKN100 FM170200 VRB03KT P6SM SCT015 SCT025 BKN080 FM170800 00000KT 4SM BR SCT006 OVC015 TEMPO 1708/1712 2SM BR BKN006 FM171500 12005KT P6SM SCT015 BKN025 OVC050
NOTAMs
Click for the latest NOTAMs
NOTAMs are issued by the DoD/FAA and will open in a separate window not controlled by AirNav.

 

 
 

Would you like to see your business listed on this page?

 If your business provides an interesting product or service to pilots, flight crews, aircraft, or users of the Tampa General Hospital Heliport, you should consider listing it here.  To start the listing process, click on the button below
 
Add a business
 

Other Pages about Tampa General Hospital Heliport

Update a link
 
Copyright © AirNav, LLC. All rights reserved. Privacy Policy  Contact